Time;durP1;ratioP1;P1;durP2;ratioP2;P2;SDS_P1;SDS_P2;PMS_P1;PMS_P2;Temp;Humidity;BMP_temperature;BMP_pressure;BME280_temperature;BME280_humidity;BME280_pressure;Samples;Min_cycle;Max_cycle;Signal;HPM_P1;HPM_P2
2022/04/28 00:00:05;;;;;;;1.95;1.75;;;22.90;50.20;;;;;;5084428;28;20036;-45
2022/04/28 00:02:33;;;;;;;1.80;1.50;;;22.90;49.70;;;;;;5085052;28;20036;-48
2022/04/28 00:05:00;;;;;;;2.22;1.88;;;22.90;49.70;;;;;;5104277;28;20052;-46
2022/04/28 00:07:27;;;;;;;2.08;1.70;;;22.90;49.70;;;;;;5104593;28;20035;-45
2022/04/28 00:09:53;;;;;;;2.43;1.53;;;22.90;49.80;;;;;;5104464;28;20115;-45
2022/04/28 00:12:19;;;;;;;1.52;1.40;;;22.90;49.90;;;;;;5104833;28;20024;-45
2022/04/28 00:14:45;;;;;;;1.65;1.55;;;22.90;50.00;;;;;;5104404;28;20039;-46
2022/04/28 00:17:11;;;;;;;1.50;1.40;;;22.80;49.90;;;;;;5094025;28;20032;-45
2022/04/28 00:19:37;;;;;;;2.15;1.35;;;22.80;50.10;;;;;;5084300;28;20024;-47
2022/04/28 00:22:04;;;;;;;1.50;1.40;;;22.80;50.00;;;;;;5084294;28;20159;-45
2022/04/28 00:24:30;;;;;;;1.83;1.73;;;22.80;50.20;;;;;;5083925;28;20032;-45
2022/04/28 00:26:56;;;;;;;2.05;1.70;;;22.80;50.20;;;;;;5083467;28;20028;-45
2022/04/28 00:29:22;;;;;;;1.98;1.60;;;22.80;50.30;;;;;;5084052;28;20134;-45
2022/04/28 00:31:48;;;;;;;1.98;1.77;;;22.80;50.40;;;;;;5083778;28;20036;-45
2022/04/28 00:34:15;;;;;;;1.95;1.77;;;22.80;50.40;;;;;;5098728;28;20040;-45
2022/04/28 00:36:41;;;;;;;2.72;1.85;;;22.80;50.30;;;;;;5103921;28;20412;-47
2022/04/28 00:39:08;;;;;;;1.88;1.67;;;22.80;50.40;;;;;;5104211;28;20031;-46
2022/04/28 00:41:34;;;;;;;2.25;1.90;;;22.80;50.30;;;;;;5103901;28;20039;-47
2022/04/28 00:44:00;;;;;;;1.40;1.25;;;22.80;50.40;;;;;;5104134;28;20044;-45
2022/04/28 00:46:26;;;;;;;2.03;1.83;;;22.70;50.30;;;;;;5099777;28;20046;-45
2022/04/28 00:51:40;;;;;;;1.95;1.80;;;22.80;50.30;;;;;;5083524;28;20040;-44
2022/04/28 00:54:06;;;;;;;2.00;1.80;;;22.70;50.20;;;;;;5082108;28;20477;-46
2022/04/28 00:56:32;;;;;;;2.40;1.80;;;22.70;50.20;;;;;;5083898;28;20028;-45
2022/04/28 00:59:02;;;;;;;2.00;1.73;;;22.70;50.30;;;;;;5097316;28;20028;-46
2022/04/28 01:01:33;;;;;;;2.40;2.20;;;22.70;50.50;;;;;;5102955;28;20063;-45
2022/04/28 01:03:59;;;;;;;2.05;1.85;;;22.70;50.50;;;;;;5103342;28;20055;-45
2022/04/28 01:06:27;;;;;;;2.17;1.98;;;22.60;50.40;;;;;;5100861;28;20043;-46
2022/04/28 01:08:55;;;;;;;;;;;22.60;50.40;;;;;;5103902;28;20020;-47
2022/04/28 01:11:21;;;;;;;2.10;1.90;;;22.60;50.20;;;;;;5102217;28;19979;-45
2022/04/28 01:13:48;;;;;;;2.13;1.92;;;22.60;50.30;;;;;;5101803;28;20115;-44
2022/04/28 01:16:15;;;;;;;2.13;1.92;;;22.60;50.20;;;;;;5101830;28;20063;-44
2022/04/28 01:18:41;;;;;;;2.13;1.92;;;22.50;50.20;;;;;;5101689;28;20024;-46
2022/04/28 01:21:08;;;;;;;2.17;1.98;;;22.60;50.20;;;;;;5101522;28;20502;-46
2022/04/28 01:23:36;;;;;;;3.60;2.03;;;22.50;50.20;;;;;;5103352;28;20028;-45
2022/04/28 01:26:04;;;;;;;1.95;1.80;;;22.50;50.10;;;;;;5100360;28;20044;-45
2022/04/28 01:28:35;;;;;;;2.20;2.00;;;22.50;50.10;;;;;;5103190;28;20054;-45
2022/04/28 01:31:07;;;;;;;2.30;2.10;;;22.50;50.10;;;;;;5101511;28;20507;-45
2022/04/28 01:33:37;;;;;;;2.47;2.25;;;22.40;49.90;;;;;;5102625;28;20032;-45
2022/04/28 01:36:06;;;;;;;2.33;2.13;;;22.40;49.90;;;;;;5085660;28;20028;-45
2022/04/28 01:38:32;;;;;;;2.30;2.05;;;22.40;50.00;;;;;;5103319;28;20059;-46
2022/04/28 01:40:59;;;;;;;2.60;2.10;;;22.40;50.00;;;;;;5103268;28;20377;-45
2022/04/28 01:43:26;;;;;;;2.38;2.15;;;22.40;50.00;;;;;;5084783;28;20032;-46
2022/04/28 01:45:52;;;;;;;2.10;1.80;;;22.40;50.00;;;;;;5094039;28;20036;-45
2022/04/28 01:48:20;;;;;;;7.53;2.67;;;22.30;49.90;;;;;;5095432;28;20024;-43
2022/04/28 01:54:57;;;;;;;3.72;2.20;;;22.30;50.10;;;;;;5099409;28;20574;-44
2022/04/28 01:56:16;;;;;;;12.25;2.75;;;22.30;50.70;;;;;;5099760;28;20038;-39
2022/04/28 01:58:43;;;;;;;9.57;2.50;;;22.30;51.50;;;;;;5100262;28;20035;-38
2022/04/28 02:01:11;;;;;;;4.28;2.35;;;22.30;51.80;;;;;;5101672;28;20036;-39
2022/04/28 02:03:40;;;;;;;11.52;2.70;;;22.30;53.10;;;;;;5101277;28;20039;-38
2022/04/28 02:06:08;;;;;;;3.88;2.20;;;22.30;52.50;;;;;;5096433;28;20039;-38
2022/04/28 02:08:39;;;;;;;3.80;2.30;;;22.30;53.40;;;;;;5101678;28;20044;-39
2022/04/28 02:11:09;;;;;;;4.88;2.40;;;22.20;52.70;;;;;;5101394;28;20454;-39
2022/04/28 02:13:35;;;;;;;3.53;2.50;;;22.20;52.90;;;;;;5100893;28;20063;-39
2022/04/28 02:16:04;;;;;;;2.90;2.25;;;22.20;52.70;;;;;;5096073;28;20117;-38
2022/04/28 02:18:31;;;;;;;4.90;2.10;;;22.20;52.40;;;;;;5094652;28;20055;-38
2022/04/28 02:20:57;;;;;;;4.47;2.00;;;22.20;52.60;;;;;;5095569;28;20024;-38
2022/04/28 02:23:24;;;;;;;2.60;2.03;;;22.20;52.60;;;;;;5081988;28;20140;-38
2022/04/28 02:25:53;;;;;;;2.75;2.25;;;22.10;52.70;;;;;;5103774;28;20051;-38
2022/04/28 02:28:20;;;;;;;3.13;2.30;;;22.10;52.60;;;;;;5086466;28;20473;-38
2022/04/28 02:30:47;;;;;;;2.78;2.30;;;22.10;52.70;;;;;;5087513;28;20036;-38
2022/04/28 02:33:13;;;;;;;;;;;22.10;52.80;;;;;;5095721;28;20039;-38
2022/04/28 02:35:41;;;;;;;2.60;2.10;;;22.10;52.80;;;;;;5084303;28;20470;-38
2022/04/28 02:38:08;;;;;;;4.18;2.30;;;22.10;52.90;;;;;;5089259;28;20039;-38
2022/04/28 02:40:34;;;;;;;3.22;2.30;;;22.10;53.10;;;;;;5098771;28;20420;-39
2022/04/28 02:43:00;;;;;;;4.60;2.17;;;22.10;53.10;;;;;;5099620;28;20043;-39
2022/04/28 02:45:28;;;;;;;2.85;2.60;;;22.10;53.30;;;;;;5096286;28;20040;-39
2022/04/28 02:47:54;;;;;;;;;;;22.00;53.10;;;;;;5074622;28;20080;-39
2022/04/28 02:50:21;;;;;;;2.97;2.33;;;22.00;53.00;;;;;;5082926;28;19909;-39
2022/04/28 02:52:50;;;;;;;3.83;2.38;;;22.00;53.10;;;;;;5096313;28;20039;-39
2022/04/28 02:55:18;;;;;;;3.75;2.45;;;22.00;53.10;;;;;;5110798;28;20028;-40
2022/04/28 02:57:45;;;;;;;5.03;2.63;;;22.00;53.10;;;;;;5092379;28;20035;-39
2022/04/28 03:00:13;;;;;;;3.53;2.58;;;22.00;53.20;;;;;;5092729;28;20492;-39
2022/04/28 03:02:39;;;;;;;5.00;2.42;;;22.00;53.20;;;;;;5085453;28;20028;-39
2022/04/28 03:05:09;;;;;;;2.85;2.58;;;22.00;53.40;;;;;;5105448;28;20044;-39
2022/04/28 03:10:51;;;;;;;2.88;2.25;;;21.90;53.70;;;;;;5109070;28;20081;-39
2022/04/28 03:13:21;;;;;;;8.60;2.70;;;21.90;53.50;;;;;;5111311;28;20032;-43
2022/04/28 03:15:48;;;;;;;7.43;2.63;;;21.90;54.00;;;;;;5086374;28;20056;-44
2022/04/28 03:18:15;;;;;;;6.80;3.38;;;21.90;55.60;;;;;;5082486;28;20021;-40
2022/04/28 03:20:42;;;;;;;12.20;3.10;;;21.90;54.20;;;;;;5095614;28;20059;-39
2022/04/28 03:23:11;;;;;;;6.30;2.80;;;21.90;54.50;;;;;;5096980;28;20405;-39
2022/04/28 03:25:38;;;;;;;5.82;2.65;;;21.90;54.20;;;;;;5104577;28;20594;-39
2022/04/28 03:28:08;;;;;;;7.78;2.95;;;21.90;56.60;;;;;;5095857;28;20064;-39
2022/04/28 03:30:35;;;;;;;7.22;3.10;;;21.90;57.60;;;;;;5102877;28;20032;-40
2022/04/28 03:33:02;;;;;;;5.30;2.97;;;21.90;59.60;;;;;;5105024;28;20054;-40
2022/04/28 03:35:28;;;;;;;10.57;2.92;;;21.90;62.00;;;;;;5090999;28;20068;-40
2022/04/28 03:37:54;;;;;;;5.57;3.10;;;21.90;63.40;;;;;;5105690;28;20373;-40
2022/04/28 03:40:21;;;;;;;4.45;2.72;;;21.80;64.50;;;;;;5103475;28;20117;-39
2022/04/28 03:42:48;;;;;;;4.72;2.75;;;21.80;65.40;;;;;;5104758;28;20736;-39
2022/04/28 03:45:14;;;;;;;5.15;3.00;;;21.80;66.90;;;;;;5104347;28;20051;-40
2022/04/28 03:47:40;;;;;;;4.68;2.83;;;21.80;68.20;;;;;;5091123;28;20035;-40
2022/04/28 03:50:07;;;;;;;5.32;2.75;;;21.80;68.60;;;;;;5084890;28;20024;-40
2022/04/28 03:52:33;;;;;;;3.83;3.00;;;21.80;68.80;;;;;;5098027;28;20050;-39
2022/04/28 03:55:00;;;;;;;6.10;2.80;;;21.80;69.00;;;;;;5103445;28;20028;-38
2022/04/28 03:57:26;;;;;;;3.20;2.90;;;21.70;69.30;;;;;;5104115;28;20031;-39
2022/04/28 03:59:52;;;;;;;3.28;2.70;;;21.70;69.40;;;;;;5105220;28;20511;-40
2022/04/28 04:02:18;;;;;;;3.47;2.83;;;21.70;69.70;;;;;;5103169;28;20040;-39
2022/04/28 04:04:44;;;;;;;4.00;2.53;;;21.70;69.80;;;;;;5098581;28;20048;-40
2022/04/28 04:07:11;;;;;;;3.55;2.65;;;21.70;70.10;;;;;;5097686;28;20020;-40
2022/04/28 04:09:37;;;;;;;5.38;2.65;;;21.70;70.60;;;;;;5089717;28;20032;-39
2022/04/28 04:12:05;;;;;;;3.05;2.55;;;21.70;70.10;;;;;;5090759;28;20020;-39
2022/04/28 04:14:32;;;;;;;3.75;2.67;;;21.70;70.20;;;;;;5083952;28;20035;-39
2022/04/28 04:16:58;;;;;;;;;;;21.70;70.30;;;;;;5087345;28;20028;-39
2022/04/28 04:19:24;;;;;;;4.35;2.53;;;21.70;70.10;;;;;;5094847;28;20448;-39
2022/04/28 04:21:50;;;;;;;4.45;2.63;;;21.60;70.10;;;;;;5084461;28;20032;-40
2022/04/28 04:24:16;;;;;;;3.35;2.90;;;21.60;70.30;;;;;;5083696;28;20106;-39
2022/04/28 04:26:43;;;;;;;4.68;2.70;;;21.60;70.10;;;;;;5101210;28;20504;-39
2022/04/28 04:29:09;;;;;;;2.63;2.35;;;21.60;70.30;;;;;;5103345;28;20023;-39
2022/04/28 04:34:20;;;;;;;3.03;2.42;;;21.50;70.40;;;;;;5093011;28;20039;-39
2022/04/28 04:36:46;;;;;;;3.60;2.70;;;21.50;70.40;;;;;;5107447;28;20035;-39
2022/04/28 04:39:12;;;;;;;2.75;2.55;;;21.50;70.40;;;;;;5095449;28;20052;-39
2022/04/28 04:41:38;;;;;;;2.95;2.65;;;21.50;70.30;;;;;;5102939;28;20036;-39
2022/04/28 04:44:05;;;;;;;5.22;2.70;;;21.40;70.40;;;;;;5103308;28;20032;-39
2022/04/28 04:46:31;;;;;;;3.03;2.70;;;21.40;70.70;;;;;;5102540;28;20119;-39
2022/04/28 04:48:57;;;;;;;3.45;2.75;;;21.40;70.60;;;;;;5093398;28;20029;-39
2022/04/28 04:51:23;;;;;;;4.57;2.78;;;21.40;70.30;;;;;;5085004;28;20058;-39
2022/04/28 04:53:49;;;;;;;3.35;2.70;;;21.40;70.30;;;;;;5101030;28;20093;-38
2022/04/28 04:56:15;;;;;;;3.17;2.50;;;21.30;70.40;;;;;;5089389;28;20040;-38
2022/04/28 04:58:41;;;;;;;4.20;2.70;;;21.30;70.40;;;;;;5094530;28;20031;-38
2022/04/28 05:01:07;;;;;;;3.53;2.33;;;21.30;70.40;;;;;;5084854;28;20029;-38
2022/04/28 05:03:33;;;;;;;3.13;2.58;;;21.30;70.60;;;;;;5100675;28;20059;-38
2022/04/28 05:05:59;;;;;;;2.63;2.42;;;21.30;70.70;;;;;;5088549;28;20036;-38
2022/04/28 05:08:25;;;;;;;3.78;2.58;;;21.30;70.70;;;;;;5098432;28;20032;-38
2022/04/28 05:10:52;;;;;;;2.60;2.40;;;21.20;70.80;;;;;;5101053;28;20028;-38
2022/04/28 05:13:18;;;;;;;4.07;2.53;;;21.20;70.80;;;;;;5096971;28;20030;-38
2022/04/28 05:15:47;;;;;;;2.70;2.47;;;21.20;71.00;;;;;;5100686;28;20036;-38
2022/04/28 05:18:13;;;;;;;2.83;2.47;;;21.20;71.10;;;;;;5096382;28;20035;-38
2022/04/28 05:20:39;;;;;;;3.25;2.88;;;21.20;70.90;;;;;;5100006;28;20087;-38
2022/04/28 05:23:05;;;;;;;3.67;2.85;;;21.20;71.20;;;;;;5101170;28;20091;-38
2022/04/28 05:25:31;;;;;;;4.70;2.63;;;21.20;71.20;;;;;;5095280;28;20051;-38
2022/04/28 05:27:57;;;;;;;3.70;2.50;;;21.10;71.30;;;;;;5094932;28;20031;-38
2022/04/28 05:30:24;;;;;;;3.97;3.00;;;21.10;71.00;;;;;;5094941;28;20115;-38
2022/04/28 05:32:50;;;;;;;4.53;2.88;;;21.10;71.10;;;;;;5094963;28;20066;-38
2022/04/28 05:35:16;;;;;;;3.83;2.60;;;21.10;71.10;;;;;;5082679;28;20024;-38
2022/04/28 05:37:42;;;;;;;3.70;2.90;;;21.10;71.20;;;;;;5090685;28;20115;-38
2022/04/28 05:40:09;;;;;;;3.45;2.80;;;21.10;71.30;;;;;;5085095;28;20052;-38
2022/04/28 05:46:02;;;;;;;4.28;3.05;;;21.00;71.20;;;;;;5092814;28;20055;-38
2022/04/28 05:48:17;;;;;;;2.90;2.50;;;21.00;71.20;;;;;;5089452;28;20036;-38
2022/04/28 05:50:44;;;;;;;3.22;2.75;;;21.00;71.20;;;;;;5097764;28;20043;-38
2022/04/28 05:53:10;;;;;;;3.67;2.70;;;21.00;71.10;;;;;;5093926;28;20446;-38
2022/04/28 05:55:37;;;;;;;3.00;2.70;;;21.00;71.30;;;;;;5089578;28;20052;-38
2022/04/28 05:58:03;;;;;;;2.95;2.50;;;20.90;71.50;;;;;;5083235;28;20029;-38
2022/04/28 06:00:30;;;;;;;2.60;2.40;;;20.90;71.50;;;;;;5085746;28;20071;-38
2022/04/28 06:02:56;;;;;;;3.13;2.60;;;20.90;71.70;;;;;;5086440;28;20493;-38
2022/04/28 06:05:22;;;;;;;3.47;2.67;;;20.90;72.00;;;;;;5100632;28;20312;-38
2022/04/28 06:08:08;;;;;;;4.05;3.10;;;20.90;71.70;;;;;;5094585;28;20044;-38
2022/04/28 06:10:34;;;;;;;3.30;2.70;;;20.80;71.60;;;;;;5057864;28;20489;-38
2022/04/28 06:13:01;;;;;;;3.33;2.80;;;20.80;71.70;;;;;;5062423;28;20060;-38
2022/04/28 06:15:27;;;;;;;3.30;2.85;;;20.80;71.90;;;;;;5056431;28;20071;-38
2022/04/28 06:17:53;;;;;;;4.38;2.65;;;20.80;71.80;;;;;;5058735;28;20040;-39
2022/04/28 06:20:19;;;;;;;2.80;2.60;;;20.80;71.70;;;;;;5059361;28;20062;-39
2022/04/28 06:22:46;;;;;;;2.95;2.65;;;20.80;71.80;;;;;;5057010;28;20029;-38
2022/04/28 06:25:13;;;;;;;5.40;2.38;;;20.80;71.90;;;;;;5042555;28;20040;-38
2022/04/28 06:27:39;;;;;;;2.80;2.50;;;20.70;71.90;;;;;;5058459;28;20067;-38
2022/04/28 06:30:06;;;;;;;3.47;2.80;;;20.70;71.90;;;;;;5060879;28;20056;-38
2022/04/28 06:32:32;;;;;;;3.17;2.50;;;20.70;72.00;;;;;;5058768;28;20031;-39
2022/04/28 06:34:58;;;;;;;4.05;2.80;;;20.70;72.10;;;;;;5062955;28;20050;-38
2022/04/28 06:37:24;;;;;;;3.40;2.63;;;20.60;71.90;;;;;;5059578;28;20036;-38
2022/04/28 06:39:50;;;;;;;3.20;2.90;;;20.60;72.10;;;;;;5045520;28;20025;-38
2022/04/28 06:42:17;;;;;;;3.58;2.97;;;20.60;72.00;;;;;;5070761;28;20126;-39
2022/04/28 06:44:43;;;;;;;3.35;2.95;;;20.60;72.00;;;;;;5064576;28;20048;-38
2022/04/28 06:47:09;;;;;;;3.20;2.90;;;20.60;72.10;;;;;;5068260;28;20036;-38
2022/04/28 06:49:37;;;;;;;3.22;2.67;;;20.50;72.00;;;;;;5090361;28;20121;-38
2022/04/28 06:52:03;;;;;;;3.05;2.75;;;20.50;72.10;;;;;;5094310;28;20029;-38
2022/04/28 06:54:30;;;;;;;5.32;2.60;;;20.50;72.00;;;;;;5101116;28;20035;-38
2022/04/28 06:56:56;;;;;;;3.08;2.78;;;20.50;72.20;;;;;;5089880;28;20024;-39
2022/04/28 06:59:22;;;;;;;3.28;2.83;;;20.50;72.20;;;;;;5100515;28;20032;-38
2022/04/28 07:01:48;;;;;;;5.85;3.10;;;20.50;72.10;;;;;;5100787;28;20020;-38
2022/04/28 07:04:14;;;;;;;3.00;2.60;;;20.50;72.30;;;;;;5103237;28;20060;-38
2022/04/28 07:06:40;;;;;;;3.88;2.85;;;20.50;72.30;;;;;;5104483;28;20191;-38
2022/04/28 07:09:07;;;;;;;3.50;3.20;;;20.40;72.30;;;;;;5100770;28;20046;-39
2022/04/28 07:11:33;;;;;;;3.42;2.63;;;20.40;72.30;;;;;;5094286;28;20504;-38
2022/04/28 07:13:59;;;;;;;3.40;2.60;;;20.40;72.40;;;;;;5105769;28;20201;-40
2022/04/28 07:16:25;;;;;;;3.42;2.80;;;20.40;72.40;;;;;;5103691;28;20032;-39
2022/04/28 07:18:51;;;;;;;3.33;2.88;;;20.40;72.50;;;;;;5091705;28;20025;-39
2022/04/28 07:21:17;;;;;;;3.08;2.78;;;20.30;72.40;;;;;;5086302;28;20077;-39
2022/04/28 07:23:43;;;;;;;3.28;2.97;;;20.30;72.40;;;;;;5103136;28;20046;-38
2022/04/28 07:26:09;;;;;;;3.30;2.80;;;20.30;72.70;;;;;;5087724;28;20386;-39
2022/04/28 07:28:36;;;;;;;3.45;2.65;;;20.30;73.00;;;;;;5104279;28;20050;-39
2022/04/28 07:31:03;;;;;;;3.47;3.00;;;20.30;73.10;;;;;;5090356;28;20028;-39
2022/04/28 07:33:29;;;;;;;3.95;2.83;;;20.20;73.30;;;;;;5094005;28;20036;-39
2022/04/28 07:35:55;;;;;;;4.70;3.03;;;20.20;73.20;;;;;;5099383;28;20060;-39
2022/04/28 07:38:22;;;;;;;3.80;2.83;;;20.20;73.10;;;;;;5102126;28;20035;-39
2022/04/28 07:40:50;;;;;;;3.38;2.92;;;20.20;73.30;;;;;;5091308;28;20035;-39
2022/04/28 07:43:16;;;;;;;3.20;2.75;;;20.20;73.30;;;;;;5097079;28;20065;-38
2022/04/28 07:45:42;;;;;;;3.22;2.92;;;20.20;73.40;;;;;;5087421;28;20122;-39
2022/04/28 07:48:08;;;;;;;3.55;3.00;;;20.10;73.20;;;;;;5100458;28;20039;-39
2022/04/28 07:50:34;;;;;;;3.13;2.80;;;20.20;73.40;;;;;;5099053;28;20036;-38
2022/04/28 07:53:00;;;;;;;4.93;3.40;;;20.10;73.30;;;;;;5101081;28;20031;-38
2022/04/28 07:55:27;;;;;;;3.65;2.97;;;20.10;73.40;;;;;;5088892;28;20058;-39
2022/04/28 07:57:53;;;;;;;4.10;3.05;;;20.10;73.70;;;;;;5099203;28;20526;-39
2022/04/28 08:00:19;;;;;;;3.55;3.13;;;20.10;73.80;;;;;;5088686;28;20135;-39
2022/04/28 08:02:45;;;;;;;2.80;2.40;;;20.00;74.00;;;;;;5102626;28;20024;-39
2022/04/28 08:05:11;;;;;;;3.25;2.88;;;20.00;73.90;;;;;;5102740;28;20077;-39
2022/04/28 08:07:37;;;;;;;3.90;2.90;;;20.00;73.90;;;;;;5100442;28;20059;-38
2022/04/28 08:10:04;;;;;;;3.85;3.00;;;20.00;74.00;;;;;;5103328;28;20048;-38
2022/04/28 08:12:30;;;;;;;3.53;3.23;;;20.00;74.20;;;;;;5092022;28;20060;-38
2022/04/28 08:14:56;;;;;;;3.85;2.97;;;20.00;74.80;;;;;;5100306;28;20028;-38
2022/04/28 08:17:22;;;;;;;3.88;3.00;;;19.90;74.10;;;;;;5088740;28;20043;-38
2022/04/28 08:19:48;;;;;;;3.75;3.08;;;19.90;74.30;;;;;;5090615;28;20101;-38
2022/04/28 08:22:14;;;;;;;4.88;3.15;;;19.90;74.30;;;;;;5104431;28;20028;-38
2022/04/28 08:24:40;;;;;;;3.78;3.10;;;19.90;74.30;;;;;;5103309;28;20048;-38
2022/04/28 08:27:07;;;;;;;3.83;3.15;;;19.90;74.40;;;;;;5100653;28;20477;-38
2022/04/28 08:29:33;;;;;;;3.17;2.85;;;19.90;74.30;;;;;;5087571;28;20061;-38
2022/04/28 08:31:59;;;;;;;3.50;3.15;;;19.80;74.30;;;;;;5083763;28;20036;-38
2022/04/28 08:34:25;;;;;;;3.70;2.75;;;19.80;74.40;;;;;;5114545;28;20038;-38
2022/04/28 08:36:51;;;;;;;3.53;3.03;;;19.80;74.30;;;;;;5109702;28;20028;-39
2022/04/28 08:39:17;;;;;;;3.00;2.60;;;19.80;74.50;;;;;;5084094;28;20033;-38
2022/04/28 08:41:47;;;;;;;3.50;2.92;;;19.80;74.60;;;;;;5100778;28;20020;-38
2022/04/28 08:44:20;;;;;;;4.53;2.97;;;19.80;74.40;;;;;;5093511;28;20099;-38
2022/04/28 08:46:53;;;;;;;4.45;3.20;;;19.70;74.60;;;;;;5092193;28;20043;-38
2022/04/28 08:49:24;;;;;;;3.33;3.00;;;19.70;74.30;;;;;;5100268;28;20063;-38
2022/04/28 08:51:57;;;;;;;3.72;2.97;;;19.70;74.30;;;;;;5102203;28;20031;-38
2022/04/28 08:54:25;;;;;;;4.20;3.30;;;19.70;74.40;;;;;;5087699;28;20635;-38
2022/04/28 08:56:52;;;;;;;3.88;3.10;;;19.70;74.40;;;;;;5084553;28;20145;-38
2022/04/28 08:59:21;;;;;;;4.38;3.40;;;19.60;74.40;;;;;;5083621;28;20051;-39
2022/04/28 09:01:47;;;;;;;3.40;2.90;;;19.60;74.40;;;;;;5097993;28;20744;-39
2022/04/28 09:04:14;;;;;;;4.47;3.17;;;19.60;74.50;;;;;;5100028;28;20048;-39
2022/04/28 09:06:41;;;;;;;3.45;2.88;;;19.60;74.60;;;;;;5097577;28;20040;-38
2022/04/28 09:09:15;;;;;;;4.53;3.20;;;19.60;74.50;;;;;;5102829;28;20412;-38
2022/04/28 09:11:42;;;;;;;4.15;3.17;;;19.60;74.70;;;;;;5087755;28;20040;-39
2022/04/28 09:14:15;;;;;;;3.33;2.80;;;19.50;74.50;;;;;;5099435;28;20070;-40
2022/04/28 09:16:51;;;;;;;3.47;2.80;;;19.50;74.50;;;;;;5093463;28;20036;-39
2022/04/28 09:19:24;;;;;;;2.97;2.63;;;19.60;74.60;;;;;;5092532;28;20119;-39
2022/04/28 09:21:52;;;;;;;3.25;2.90;;;19.60;75.50;;;;;;5096302;28;20073;-40
2022/04/28 09:24:18;;;;;;;3.60;2.67;;;19.60;75.90;;;;;;5092331;28;20028;-39
2022/04/28 09:26:44;;;;;;;2.97;2.25;;;19.60;76.80;;;;;;5094882;28;20043;-40
2022/04/28 09:29:15;;;;;;;2.75;2.38;;;19.60;77.30;;;;;;5090880;28;20034;-39
2022/04/28 09:31:43;;;;;;;3.35;2.47;;;19.70;78.00;;;;;;5097327;28;20032;-39
2022/04/28 09:34:14;;;;;;;3.20;2.10;;;19.70;78.30;;;;;;5091556;28;20378;-39
2022/04/28 09:36:41;;;;;;;3.50;2.28;;;19.70;78.00;;;;;;5093424;28;20027;-39
2022/04/28 09:39:08;;;;;;;4.70;2.33;;;19.70;78.10;;;;;;5103010;28;20024;-39
2022/04/28 09:44:22;;;;;;;4.32;2.08;;;19.80;79.20;;;;;;5082324;28;20059;-39
2022/04/28 09:46:50;;;;;;;2.33;1.80;;;19.90;79.60;;;;;;5092131;28;20036;-39
2022/04/28 09:49:17;;;;;;;3.13;2.08;;;19.90;79.80;;;;;;5082510;28;20032;-39
2022/04/28 09:51:43;;;;;;;;;;;20.00;79.30;;;;;;5091218;28;20702;-39
2022/04/28 09:54:14;;;;;;;2.42;1.88;;;20.00;78.70;;;;;;5100349;28;20084;-39
2022/04/28 09:56:41;;;;;;;3.10;2.20;;;20.00;79.30;;;;;;5093195;28;20036;-40
2022/04/28 09:59:09;;;;;;;2.42;1.80;;;20.00;79.60;;;;;;5087966;28;20032;-40
2022/04/28 10:01:37;;;;;;;2.38;1.98;;;20.10;79.90;;;;;;5084938;28;20044;-39
2022/04/28 10:04:04;;;;;;;2.42;1.90;;;20.10;79.90;;;;;;5094361;28;20078;-37
2022/04/28 10:06:32;;;;;;;;;;;20.20;78.90;;;;;;5089788;28;20040;-37
2022/04/28 10:08:59;;;;;;;3.58;1.73;;;20.20;78.40;;;;;;5092156;28;19911;-39
2022/04/28 10:11:25;;;;;;;1.85;1.60;;;20.20;78.80;;;;;;5086469;28;20037;-39
2022/04/28 10:13:51;;;;;;;1.85;1.65;;;20.20;79.10;;;;;;5088213;28;20039;-39
2022/04/28 10:16:20;;;;;;;2.55;1.75;;;20.30;79.50;;;;;;5096056;28;20028;-39
2022/04/28 10:19:10;;;;;;;2.33;1.90;;;20.30;79.20;;;;;;5080507;28;20028;-38
2022/04/28 10:21:56;;;;;;;5.13;1.88;;;20.40;78.40;;;;;;5105213;28;20032;-39
2022/04/28 10:33:01;;;;;;;5.47;1.85;;;20.50;79.40;;;;;;5107430;28;20047;-38
2022/04/28 10:35:38;;;;;;;15.63;2.63;;;20.50;78.70;;;;;;5102153;28;20035;-37
2022/04/28 10:38:11;;;;;;;6.68;1.80;;;20.60;78.70;;;;;;5096316;28;20024;-40
2022/04/28 10:40:41;;;;;;;3.95;1.80;;;20.60;78.30;;;;;;5101123;28;20028;-41
2022/04/28 10:43:25;;;;;;;3.38;1.92;;;20.60;78.80;;;;;;5102440;28;20107;-38
2022/04/28 10:45:51;;;;;;;3.03;1.90;;;20.70;79.20;;;;;;5081656;28;20040;-39
2022/04/28 10:48:28;;;;;;;4.75;2.00;;;20.70;78.60;;;;;;5096689;28;20020;-38
2022/04/28 10:51:15;;;;;;;3.35;1.98;;;20.70;78.30;;;;;;5084536;28;20040;-38
2022/04/28 10:53:59;;;;;;;4.72;1.98;;;20.70;78.10;;;;;;5093199;28;20016;-38
2022/04/28 10:56:41;;;;;;;2.28;1.90;;;20.70;77.70;;;;;;5086557;28;20078;-38
2022/04/28 10:59:26;;;;;;;1.70;1.42;;;20.80;78.00;;;;;;5083572;28;20043;-38
2022/04/28 11:01:52;;;;;;;2.80;1.83;;;20.80;78.30;;;;;;5102034;28;20028;-38
2022/04/28 11:04:25;;;;;;;3.58;2.33;;;20.80;77.50;;;;;;5101562;28;20051;-38
2022/04/28 11:06:58;;;;;;;2.13;1.70;;;20.80;77.90;;;;;;5096340;28;20032;-39
2022/04/28 11:09:50;;;;;;;2.50;1.90;;;20.80;77.80;;;;;;5100098;28;20090;-38
2022/04/28 11:12:20;;;;;;;3.50;1.67;;;20.70;77.60;;;;;;5100860;28;20032;-38
2022/04/28 11:15:00;;;;;;;2.08;1.85;;;20.80;77.50;;;;;;5102009;28;20047;-39
2022/04/28 11:17:28;;;;;;;2.20;1.90;;;20.80;77.70;;;;;;5101468;28;20035;-38
2022/04/28 11:19:54;;;;;;;1.60;1.48;;;20.80;77.40;;;;;;5104232;28;20059;-38
2022/04/28 11:22:21;;;;;;;1.60;1.50;;;20.80;77.30;;;;;;5105853;28;20035;-38
2022/04/28 11:24:48;;;;;;;;;;;20.80;77.40;;;;;;5104417;28;20050;-38
2022/04/28 11:27:21;;;;;;;1.95;1.40;;;20.80;77.20;;;;;;5085367;28;19935;-38
2022/04/28 11:29:49;;;;;;;2.45;1.80;;;20.70;76.70;;;;;;5084924;28;20049;-38
2022/04/28 11:32:16;;;;;;;2.00;1.52;;;20.80;77.00;;;;;;5091344;28;20035;-38
2022/04/28 11:34:44;;;;;;;2.30;1.45;;;20.80;77.30;;;;;;5105204;28;20024;-38
2022/04/28 11:37:18;;;;;;;2.28;1.50;;;20.80;76.80;;;;;;5105371;28;20032;-38
2022/04/28 11:39:44;;;;;;;2.13;1.52;;;20.80;77.10;;;;;;5105018;28;20072;-39
2022/04/28 11:42:16;;;;;;;3.05;1.88;;;20.80;76.80;;;;;;5105255;28;20032;-38
2022/04/28 11:44:52;;;;;;;2.03;1.55;;;20.80;76.70;;;;;;5105078;28;20032;-38
2022/04/28 11:47:19;;;;;;;1.95;1.63;;;20.80;76.70;;;;;;5105049;28;20053;-38
2022/04/28 11:49:45;;;;;;;2.20;1.60;;;20.80;76.80;;;;;;5104659;28;20115;-38
2022/04/28 11:52:37;;;;;;;2.33;1.70;;;20.80;77.00;;;;;;5105222;28;20032;-38
2022/04/28 11:55:11;;;;;;;2.00;1.58;;;20.80;76.80;;;;;;5101849;28;20036;-39
2022/04/28 11:57:39;;;;;;;2.15;1.60;;;20.80;76.80;;;;;;5105035;28;20032;-38
2022/04/28 12:00:12;;;;;;;1.80;1.55;;;20.80;76.60;;;;;;5104713;28;20119;-38
2022/04/28 12:02:38;;;;;;;2.30;1.50;;;20.80;76.60;;;;;;5104601;28;20020;-38
2022/04/28 12:05:15;;;;;;;1.90;1.70;;;20.70;76.60;;;;;;5088387;28;20048;-38
2022/04/28 12:07:50;;;;;;;2.75;1.67;;;20.70;76.50;;;;;;5098163;28;20035;-38
2022/04/28 12:15:55;;;;;;;2.55;1.95;;;20.60;76.00;;;;;;5103713;28;20085;-39
2022/04/28 12:21:23;;;;;;;2.17;1.70;;;20.60;75.50;;;;;;5104718;28;20073;-38
2022/04/28 12:23:52;;;;;;;1.75;1.65;;;20.60;75.40;;;;;;5104695;28;20032;-38
2022/04/28 12:26:20;;;;;;;1.98;1.77;;;20.60;75.40;;;;;;5103247;28;20040;-38
2022/04/28 12:28:47;;;;;;;2.00;1.77;;;20.60;75.30;;;;;;5104358;28;20088;-38
2022/04/28 12:31:15;;;;;;;2.92;1.67;;;20.60;75.30;;;;;;5103894;28;20039;-38
2022/04/28 12:33:41;;;;;;;2.10;1.73;;;20.50;75.30;;;;;;5104365;28;20086;-38
2022/04/28 12:36:13;;;;;;;2.10;1.90;;;20.50;75.60;;;;;;5104533;28;20059;-38
2022/04/28 12:38:48;;;;;;;2.40;1.90;;;20.40;75.30;;;;;;5103809;28;20799;-39
2022/04/28 12:41:22;;;;;;;1.92;1.60;;;20.40;75.30;;;;;;5104046;28;20031;-38
2022/04/28 12:43:49;;;;;;;2.55;1.80;;;20.40;75.30;;;;;;5104270;28;20055;-39
2022/04/28 12:46:18;;;;;;;;;;;20.40;75.50;;;;;;5104641;28;20039;-39
2022/04/28 12:48:45;;;;;;;2.15;1.83;;;20.40;75.50;;;;;;5103766;28;19919;-38
2022/04/28 12:51:18;;;;;;;2.80;1.83;;;20.30;75.30;;;;;;5085748;28;20043;-38
2022/04/28 12:53:52;;;;;;;2.03;1.70;;;20.30;75.30;;;;;;5104158;28;20024;-38
2022/04/28 12:56:29;;;;;;;2.63;1.88;;;20.30;75.50;;;;;;5103037;28;20058;-38
2022/04/28 12:59:00;;;;;;;2.50;1.77;;;20.30;75.40;;;;;;5103730;28;20028;-38
2022/04/28 13:01:27;;;;;;;2.85;1.95;;;20.20;75.40;;;;;;5103675;28;20024;-38
2022/04/28 13:04:03;;;;;;;2.40;1.95;;;20.20;75.50;;;;;;5103394;28;20035;-40
2022/04/28 13:06:31;;;;;;;2.30;1.63;;;20.20;75.50;;;;;;5098045;28;20463;-38
2022/04/28 13:08:59;;;;;;;3.08;1.48;;;20.20;75.40;;;;;;5102163;28;20539;-38
2022/04/28 13:11:29;;;;;;;2.67;2.25;;;20.20;75.60;;;;;;5103660;28;20040;-38
2022/04/28 13:13:56;;;;;;;2.75;2.17;;;20.10;75.80;;;;;;5103941;28;20142;-39
2022/04/28 13:16:23;;;;;;;2.45;1.40;;;20.10;75.90;;;;;;5103885;28;20046;-38
2022/04/28 13:18:49;;;;;;;2.27;1.80;;;20.10;76.00;;;;;;5103360;28;20024;-38
2022/04/28 13:21:15;;;;;;;2.20;2.00;;;20.10;76.10;;;;;;5103445;28;20717;-38
2022/04/28 13:23:45;;;;;;;2.50;1.80;;;20.10;76.00;;;;;;5103709;28;20028;-38
2022/04/28 13:26:13;;;;;;;2.10;1.67;;;20.10;75.90;;;;;;5090312;28;20033;-39